createdAt,value
2019-03-23T00:02:05.398Z,7.90
2019-03-23T00:04:32.825Z,7.80
2019-03-23T00:07:00.116Z,7.80
2019-03-23T00:09:27.553Z,7.80
2019-03-23T00:11:55.035Z,7.80
2019-03-23T00:14:22.584Z,7.70
2019-03-23T00:16:49.973Z,7.70
2019-03-23T00:19:17.638Z,7.70
2019-03-23T00:21:45.188Z,7.60
2019-03-23T00:24:12.672Z,7.60
2019-03-23T00:26:40.213Z,6.50
2019-03-23T00:29:07.620Z,7.50
2019-03-23T00:31:34.969Z,7.50
2019-03-23T00:34:02.446Z,7.50
2019-03-23T00:36:29.876Z,7.50
2019-03-23T00:38:57.161Z,7.40
2019-03-23T00:41:24.510Z,7.40
2019-03-23T00:43:51.847Z,7.40
2019-03-23T00:46:21.185Z,7.40
2019-03-23T00:48:48.602Z,7.30
2019-03-23T00:51:16.002Z,7.40
2019-03-23T00:53:43.429Z,7.30
2019-03-23T00:56:10.807Z,7.40
2019-03-23T00:58:38.346Z,7.30
2019-03-23T01:01:05.757Z,7.30
2019-03-23T01:03:33.080Z,7.40
2019-03-23T01:06:00.485Z,7.30
2019-03-23T01:08:27.790Z,7.40
2019-03-23T01:10:55.421Z,7.30
2019-03-23T01:13:22.906Z,7.30
2019-03-23T01:15:50.291Z,7.30
2019-03-23T01:18:17.584Z,7.30
2019-03-23T01:20:49.555Z,7.20
2019-03-23T01:23:14.231Z,7.20
2019-03-23T01:25:41.787Z,7.20
2019-03-23T01:28:09.359Z,7.10
2019-03-23T01:30:36.770Z,7.10
2019-03-23T01:33:04.406Z,7.10
2019-03-23T01:35:31.732Z,7.00
2019-03-23T01:37:59.023Z,7.00
2019-03-23T01:40:26.379Z,7.00
2019-03-23T01:42:53.685Z,6.90
2019-03-23T01:45:21.230Z,6.70
2019-03-23T01:47:48.669Z,6.80
2019-03-23T01:50:16.244Z,6.80
2019-03-23T01:52:43.624Z,6.80
2019-03-23T01:55:11.339Z,6.70
2019-03-23T01:57:38.946Z,6.70
2019-03-23T02:00:07.124Z,6.80
2019-03-23T02:02:34.983Z,6.70
2019-03-23T02:05:02.815Z,6.60
2019-03-23T02:07:30.151Z,6.60
2019-03-23T02:09:57.495Z,6.60
2019-03-23T02:12:24.912Z,6.60
2019-03-23T02:14:52.159Z,6.60
2019-03-23T02:17:20.670Z,6.50
2019-03-23T02:19:48.228Z,6.50
2019-03-23T02:22:15.853Z,6.50
2019-03-23T02:24:43.240Z,6.50
2019-03-23T02:27:10.804Z,6.50
2019-03-23T02:29:38.159Z,6.50
2019-03-23T02:32:05.600Z,6.50
2019-03-23T02:34:33.141Z,6.50
2019-03-23T02:37:00.497Z,6.40
2019-03-23T02:39:28.160Z,6.40
2019-03-23T02:41:55.614Z,6.40
2019-03-23T02:44:23.071Z,6.40
2019-03-23T02:46:50.360Z,6.40
2019-03-23T02:49:17.917Z,6.40
2019-03-23T02:51:45.355Z,6.40
2019-03-23T02:54:12.984Z,6.30
2019-03-23T02:56:40.241Z,6.30
2019-03-23T02:59:07.880Z,6.30
2019-03-23T03:01:35.356Z,6.20
2019-03-23T03:04:02.900Z,6.20
2019-03-23T03:06:30.384Z,6.20
2019-03-23T03:08:57.962Z,6.20
2019-03-23T03:11:25.252Z,6.20
2019-03-23T03:13:52.564Z,6.10
2019-03-23T03:16:20.106Z,6.10
2019-03-23T03:18:47.516Z,6.00
2019-03-23T03:21:14.867Z,6.00
2019-03-23T03:23:42.200Z,5.90
2019-03-23T03:26:09.678Z,5.90
2019-03-23T03:28:37.010Z,5.90
2019-03-23T03:31:04.549Z,5.80
2019-03-23T03:33:31.976Z,5.80
2019-03-23T03:35:59.256Z,5.80
2019-03-23T03:38:26.546Z,5.80
2019-03-23T03:40:54.275Z,5.80
2019-03-23T03:43:21.663Z,5.70
2019-03-23T03:45:49.214Z,5.70
2019-03-23T03:48:16.571Z,5.70
2019-03-23T03:50:43.936Z,5.70
2019-03-23T03:53:11.212Z,5.70
2019-03-23T03:55:38.699Z,5.70
2019-03-23T03:58:07.312Z,5.70
2019-03-23T04:00:34.627Z,5.60
2019-03-23T04:03:02.168Z,5.70
2019-03-23T04:05:29.455Z,5.60
2019-03-23T04:08:09.892Z,5.60
2019-03-23T04:10:26.050Z,5.60
2019-03-23T04:12:53.357Z,5.60
2019-03-23T04:15:20.835Z,5.60
2019-03-23T04:17:48.343Z,5.60
2019-03-23T04:20:15.721Z,5.60
2019-03-23T04:22:43.092Z,5.60
2019-03-23T04:25:10.700Z,5.60
2019-03-23T04:27:37.969Z,5.50
2019-03-23T04:30:06.378Z,5.50
2019-03-23T04:32:34.209Z,5.50
2019-03-23T04:35:03.524Z,5.50
2019-03-23T04:37:30.795Z,5.50
2019-03-23T04:39:58.051Z,5.40
2019-03-23T04:42:25.507Z,5.40
2019-03-23T04:44:52.923Z,5.40
2019-03-23T04:47:20.378Z,5.30
2019-03-23T04:49:47.975Z,5.30
2019-03-23T04:52:15.375Z,5.20
2019-03-23T04:54:42.727Z,5.20
2019-03-23T04:57:10.219Z,5.20
2019-03-23T04:59:37.595Z,5.10
2019-03-23T05:02:05.192Z,5.10
2019-03-23T05:04:32.505Z,5.00
2019-03-23T05:06:59.813Z,5.00
2019-03-23T05:09:27.341Z,5.00
2019-03-23T05:11:54.858Z,5.00
2019-03-23T05:14:22.130Z,5.00
2019-03-23T05:16:49.399Z,5.00
2019-03-23T05:19:16.687Z,5.00
2019-03-23T05:21:43.942Z,5.00
2019-03-23T05:24:11.451Z,5.00
2019-03-23T05:26:38.886Z,5.00
2019-03-23T05:29:06.234Z,4.90
2019-03-23T05:31:34.869Z,4.90
2019-03-23T05:34:02.115Z,4.90
2019-03-23T05:36:29.527Z,4.90
2019-03-23T05:38:56.855Z,4.80
2019-03-23T05:41:24.378Z,4.80
2019-03-23T05:43:51.642Z,4.80
2019-03-23T05:46:19.176Z,4.60
2019-03-23T05:48:46.717Z,4.80
2019-03-23T05:51:14.222Z,4.90
2019-03-23T05:53:41.547Z,4.90
2019-03-23T05:56:08.842Z,4.90
2019-03-23T05:58:36.108Z,4.90
2019-03-23T06:01:03.624Z,5.00
2019-03-23T06:03:31.047Z,5.00
2019-03-23T06:05:58.480Z,5.10
2019-03-23T06:08:25.962Z,5.10
2019-03-23T06:10:53.486Z,5.20
2019-03-23T06:13:20.883Z,5.40
2019-03-23T06:15:48.382Z,5.70
2019-03-23T06:18:16.288Z,6.10
2019-03-23T06:20:43.685Z,6.50
2019-03-23T06:23:11.075Z,6.90
2019-03-23T06:25:38.583Z,7.60
2019-03-23T06:28:06.114Z,8.20
2019-03-23T06:30:33.375Z,8.60
2019-03-23T06:33:00.915Z,9.30
2019-03-23T06:35:28.321Z,10.20
2019-03-23T06:37:55.579Z,11.00
2019-03-23T06:40:22.979Z,11.70
2019-03-23T06:42:59.304Z,12.40
2019-03-23T06:45:20.979Z,12.90
2019-03-23T06:47:48.319Z,13.30
2019-03-23T06:50:15.842Z,13.60
2019-03-23T06:52:43.347Z,14.10
2019-03-23T06:55:11.871Z,13.90
2019-03-23T06:57:39.335Z,13.90
2019-03-23T07:00:07.973Z,14.10
2019-03-23T07:02:35.495Z,14.70
2019-03-23T07:05:03.179Z,14.80
2019-03-23T07:07:30.601Z,15.00
2019-03-23T07:09:58.028Z,15.40
2019-03-23T07:12:25.327Z,15.90
2019-03-23T07:14:52.762Z,16.10
2019-03-23T07:17:20.043Z,15.80
2019-03-23T07:19:47.311Z,16.10
2019-03-23T07:22:14.576Z,16.10
2019-03-23T07:24:42.409Z,16.10
2019-03-23T07:27:10.062Z,16.80
2019-03-23T07:29:37.460Z,17.60
2019-03-23T07:32:05.900Z,18.00
2019-03-23T07:34:33.678Z,18.20
2019-03-23T07:37:01.243Z,18.90
2019-03-23T07:39:30.490Z,19.40
2019-03-23T07:41:57.945Z,19.60
2019-03-23T07:44:25.491Z,19.60
2019-03-23T07:46:52.890Z,19.80
2019-03-23T07:49:20.356Z,20.20
2019-03-23T07:51:47.767Z,20.80
2019-03-23T07:54:15.164Z,20.80
2019-03-23T07:56:42.464Z,21.00
2019-03-23T07:59:09.965Z,20.80
2019-03-23T08:01:37.232Z,20.50
2019-03-23T08:04:04.623Z,20.20
2019-03-23T08:06:32.084Z,20.20
2019-03-23T08:08:59.442Z,19.80
2019-03-23T08:11:26.747Z,19.90
2019-03-23T08:13:54.159Z,20.10
2019-03-23T08:16:22.024Z,20.80
2019-03-23T08:18:49.373Z,21.20
2019-03-23T08:21:16.728Z,21.60
2019-03-23T08:23:45.332Z,20.60
2019-03-23T08:26:12.627Z,19.10
2019-03-23T08:28:40.018Z,18.90
2019-03-23T08:31:07.307Z,18.60
2019-03-23T08:33:34.700Z,18.70
2019-03-23T08:36:02.129Z,18.40
2019-03-23T08:38:29.517Z,17.60
2019-03-23T08:40:57.155Z,17.10
2019-03-23T08:43:24.655Z,16.30
2019-03-23T08:45:51.983Z,16.20
2019-03-23T08:48:19.260Z,15.60
2019-03-23T08:50:46.566Z,15.40
2019-03-23T08:53:13.883Z,14.90
2019-03-23T08:55:41.194Z,14.60
2019-03-23T08:58:08.594Z,14.30
2019-03-23T09:00:35.900Z,14.10
2019-03-23T09:03:03.878Z,14.20
2019-03-23T09:05:31.466Z,13.90
2019-03-23T09:07:58.985Z,14.00
2019-03-23T09:10:26.299Z,14.30
2019-03-23T09:12:53.566Z,14.40
2019-03-23T09:15:20.955Z,14.10
2019-03-23T09:17:48.355Z,14.10
2019-03-23T09:20:15.916Z,14.20
2019-03-23T09:22:43.285Z,14.30
2019-03-23T09:25:10.691Z,14.40
2019-03-23T09:27:38.071Z,14.50
2019-03-23T09:30:06.784Z,14.60
2019-03-23T09:32:34.099Z,14.60
2019-03-23T09:35:01.376Z,15.00
2019-03-23T09:37:28.695Z,15.00
2019-03-23T09:39:55.955Z,15.10
2019-03-23T09:42:23.194Z,15.50
2019-03-23T09:44:50.574Z,15.60
2019-03-23T09:47:17.967Z,16.00
2019-03-23T09:49:45.355Z,16.40
2019-03-23T09:52:12.759Z,17.10
2019-03-23T09:54:40.115Z,17.60
2019-03-23T09:57:07.478Z,18.40
2019-03-23T09:59:34.760Z,19.30
2019-03-23T10:02:02.318Z,20.00
2019-03-23T10:04:29.587Z,20.30
2019-03-23T10:06:57.138Z,20.70
2019-03-23T10:09:24.390Z,21.30
2019-03-23T10:11:51.794Z,22.40
2019-03-23T10:14:19.251Z,23.40
2019-03-23T10:16:46.779Z,24.30
2019-03-23T10:19:14.760Z,24.80
2019-03-23T10:21:42.687Z,25.80
2019-03-23T10:24:11.661Z,26.80
2019-03-23T10:26:41.587Z,27.20
2019-03-23T10:29:11.147Z,27.90
2019-03-23T10:31:39.046Z,27.60
2019-03-23T10:34:08.280Z,26.40
2019-03-23T10:36:35.751Z,27.00
2019-03-23T10:39:12.208Z,26.40
2019-03-23T10:41:44.724Z,25.80
2019-03-23T10:44:13.860Z,25.90
2019-03-23T10:46:45.413Z,25.60
2019-03-23T10:49:13.455Z,25.70
2019-03-23T10:51:41.553Z,26.70
2019-03-23T10:54:09.407Z,26.50
2019-03-23T10:56:37.390Z,27.30
2019-03-23T10:59:05.315Z,26.40
2019-03-23T11:01:34.359Z,28.00
2019-03-23T11:04:06.265Z,28.40
2019-03-23T11:06:39.685Z,29.30
2019-03-23T11:09:07.947Z,28.50
2019-03-23T11:11:42.035Z,28.40
2019-03-23T11:14:09.845Z,28.30
2019-03-23T11:16:40.539Z,28.90
2019-03-23T11:19:13.523Z,28.70
2019-03-23T11:21:41.202Z,29.00
2019-03-23T11:24:09.413Z,29.40
2019-03-23T11:26:40.124Z,29.20
2019-03-23T11:29:08.546Z,29.80
2019-03-23T11:31:39.138Z,30.90
2019-03-23T11:34:07.040Z,29.70
2019-03-23T11:36:35.413Z,28.80
2019-03-23T11:39:05.725Z,28.10
2019-03-23T11:41:33.649Z,28.60
2019-03-23T11:44:01.924Z,28.80
2019-03-23T11:46:29.986Z,28.20
2019-03-23T11:48:57.478Z,27.90
2019-03-23T11:51:25.528Z,28.00
2019-03-23T11:53:53.248Z,27.10
2019-03-23T11:56:20.979Z,27.40
2019-03-23T11:58:50.411Z,27.00
2019-03-23T12:01:18.422Z,27.20
2019-03-23T12:03:46.446Z,26.80
2019-03-23T12:06:14.256Z,27.10
2019-03-23T12:08:42.164Z,26.50
2019-03-23T12:11:19.300Z,26.90
2019-03-23T12:13:46.529Z,26.50
2019-03-23T12:16:14.056Z,27.00
2019-03-23T12:18:41.651Z,26.50
2019-03-23T12:21:09.375Z,26.30
2019-03-23T12:23:37.389Z,26.70
2019-03-23T12:26:05.399Z,26.80
2019-03-23T12:28:33.537Z,26.50
2019-03-23T12:31:01.367Z,25.70
2019-03-23T12:33:29.458Z,25.60
2019-03-23T12:35:59.104Z,25.50
2019-03-23T12:38:27.077Z,25.20
2019-03-23T12:40:56.739Z,25.00
2019-03-23T12:43:24.903Z,24.80
2019-03-23T12:45:52.510Z,24.20
2019-03-23T12:48:20.461Z,23.70
2019-03-23T12:50:48.327Z,23.60
2019-03-23T12:53:16.310Z,24.20
2019-03-23T12:55:45.984Z,24.50
2019-03-23T12:58:18.231Z,24.80
2019-03-23T13:00:51.480Z,24.80
2019-03-23T13:03:18.991Z,24.70
2019-03-23T13:05:47.117Z,24.30
2019-03-23T13:08:19.782Z,23.80
2019-03-23T13:10:48.871Z,23.40
2019-03-23T13:13:16.904Z,23.40
2019-03-23T13:15:45.067Z,23.00
2019-03-23T13:18:13.080Z,22.90
2019-03-23T13:20:40.483Z,22.40
2019-03-23T13:23:10.323Z,22.10
2019-03-23T13:25:38.179Z,21.50
2019-03-23T13:28:06.095Z,21.30
2019-03-23T13:30:34.239Z,21.00
2019-03-23T13:33:02.089Z,21.00
2019-03-23T13:35:30.211Z,20.80
2019-03-23T13:37:59.902Z,20.60
2019-03-23T13:40:30.534Z,20.20
2019-03-23T13:42:58.179Z,20.10
2019-03-23T13:45:26.040Z,19.90
2019-03-23T13:47:54.930Z,19.80
2019-03-23T13:50:26.795Z,19.70
2019-03-23T13:52:58.017Z,19.40
2019-03-23T13:55:28.284Z,19.20
2019-03-23T13:58:04.524Z,18.90
2019-03-23T14:00:32.518Z,18.70
2019-03-23T14:02:59.891Z,18.60
2019-03-23T14:05:27.277Z,18.60
2019-03-23T14:07:54.711Z,18.60
2019-03-23T14:10:22.145Z,18.60
2019-03-23T14:12:49.705Z,18.40
2019-03-23T14:15:16.971Z,18.40
2019-03-23T14:17:44.267Z,18.30
2019-03-23T14:20:11.710Z,18.30
2019-03-23T14:22:39.112Z,18.20
2019-03-23T14:25:06.480Z,18.10
2019-03-23T14:27:34.011Z,18.00
2019-03-23T14:30:01.623Z,18.00
2019-03-23T14:32:28.920Z,17.90
2019-03-23T14:34:56.371Z,17.80
2019-03-23T14:37:23.979Z,17.60
2019-03-23T14:39:51.314Z,17.60
2019-03-23T14:42:18.759Z,17.60
2019-03-23T14:44:46.038Z,17.50
2019-03-23T14:47:13.358Z,17.40
2019-03-23T14:49:40.771Z,17.20
2019-03-23T14:52:08.027Z,17.20
2019-03-23T14:54:35.318Z,17.10
2019-03-23T14:57:02.638Z,16.90
2019-03-23T14:59:30.228Z,16.80
2019-03-23T15:01:57.615Z,16.80
2019-03-23T15:04:25.144Z,16.80
2019-03-23T15:06:52.551Z,16.60
2019-03-23T15:09:19.965Z,16.50
2019-03-23T15:11:47.509Z,16.50
2019-03-23T15:14:14.943Z,16.40
2019-03-23T15:16:42.399Z,16.40
2019-03-23T15:19:09.702Z,16.30
2019-03-23T15:21:37.077Z,16.20
2019-03-23T15:24:04.611Z,16.10
2019-03-23T15:26:32.037Z,16.10
2019-03-23T15:28:59.403Z,16.10
2019-03-23T15:31:27.015Z,16.00
2019-03-23T15:33:54.391Z,16.00
2019-03-23T15:36:22.159Z,15.90
2019-03-23T15:38:49.383Z,15.90
2019-03-23T15:41:16.648Z,15.80
2019-03-23T15:43:44.033Z,15.80
2019-03-23T15:46:11.503Z,15.70
2019-03-23T15:48:38.924Z,15.50
2019-03-23T15:51:06.223Z,15.50
2019-03-23T15:53:33.760Z,15.40
2019-03-23T15:56:01.181Z,15.40
2019-03-23T15:58:28.570Z,15.40
2019-03-23T16:00:56.076Z,15.40
2019-03-23T16:03:23.374Z,15.40
2019-03-23T16:05:50.799Z,15.30
2019-03-23T16:08:18.182Z,15.30
2019-03-23T16:10:45.575Z,15.20
2019-03-23T16:13:13.143Z,15.10
2019-03-23T16:15:40.683Z,15.00
2019-03-23T16:18:07.928Z,15.00
2019-03-23T16:20:35.356Z,14.90
2019-03-23T16:23:03.000Z,14.80
2019-03-23T16:25:30.310Z,14.80
2019-03-23T16:27:57.724Z,14.80
2019-03-23T16:30:29.771Z,14.60
2019-03-23T16:32:57.215Z,14.50
2019-03-23T16:35:24.513Z,14.40
2019-03-23T16:37:51.922Z,14.40
2019-03-23T16:40:19.443Z,14.30
2019-03-23T16:42:50.100Z,14.20
2019-03-23T16:45:17.676Z,14.10
2019-03-23T16:47:45.304Z,14.00
2019-03-23T16:50:13.007Z,14.00
2019-03-23T16:52:40.462Z,13.90
2019-03-23T16:55:08.783Z,13.90
2019-03-23T16:57:36.191Z,13.80
2019-03-23T17:00:05.905Z,13.80
2019-03-23T17:02:33.189Z,13.70
2019-03-23T17:05:00.716Z,13.70
2019-03-23T17:07:28.260Z,13.60
2019-03-23T17:09:55.698Z,13.60
2019-03-23T17:12:22.977Z,13.60
2019-03-23T17:14:50.540Z,13.60
2019-03-23T17:17:17.978Z,13.50
2019-03-23T17:19:45.510Z,13.40
2019-03-23T17:22:12.915Z,13.40
2019-03-23T17:24:40.263Z,13.40
2019-03-23T17:27:07.656Z,13.20
2019-03-23T17:29:35.169Z,13.20
2019-03-23T17:32:02.667Z,13.10
2019-03-23T17:34:30.104Z,13.00
2019-03-23T17:36:57.510Z,12.90
2019-03-23T17:39:26.873Z,12.80
2019-03-23T17:41:54.146Z,13.00
2019-03-23T17:44:21.709Z,12.70
2019-03-23T17:46:49.260Z,12.70
2019-03-23T17:49:16.657Z,12.50
2019-03-23T17:51:44.119Z,12.50
2019-03-23T17:54:11.392Z,12.50
2019-03-23T17:56:38.814Z,12.30
2019-03-23T17:59:06.328Z,12.30
2019-03-23T18:01:33.874Z,12.20
2019-03-23T18:04:01.436Z,12.10
2019-03-23T18:06:28.760Z,12.10
2019-03-23T18:08:56.299Z,12.00
2019-03-23T18:11:23.572Z,11.90
2019-03-23T18:13:51.167Z,11.90
2019-03-23T18:16:18.807Z,11.80
2019-03-23T18:18:46.395Z,11.90
2019-03-23T18:21:13.945Z,11.70
2019-03-23T18:23:41.472Z,11.70
2019-03-23T18:26:09.126Z,11.70
2019-03-23T18:28:36.687Z,11.60
2019-03-23T18:31:04.247Z,11.60
2019-03-23T18:33:31.655Z,11.60
2019-03-23T18:35:59.182Z,11.70
2019-03-23T18:38:26.703Z,11.70
2019-03-23T18:40:54.216Z,11.70
2019-03-23T18:43:27.437Z,11.80
2019-03-23T18:45:51.248Z,11.70
2019-03-23T18:48:18.828Z,11.70
2019-03-23T18:50:46.443Z,11.70
2019-03-23T18:53:14.029Z,11.90
2019-03-23T18:55:41.560Z,11.70
2019-03-23T18:58:08.974Z,11.70
2019-03-23T19:00:41.753Z,11.70
2019-03-23T19:03:09.526Z,11.60
2019-03-23T19:05:37.281Z,11.60
2019-03-23T19:08:05.210Z,11.50
2019-03-23T19:10:32.826Z,11.50
2019-03-23T19:13:00.348Z,11.50
2019-03-23T19:15:27.918Z,11.50
2019-03-23T19:17:55.351Z,12.50
2019-03-23T19:20:22.913Z,11.40
2019-03-23T19:22:50.486Z,11.40
2019-03-23T19:25:18.610Z,11.40
2019-03-23T19:27:46.338Z,11.30
2019-03-23T19:30:14.624Z,11.40
2019-03-23T19:32:42.120Z,11.30
2019-03-23T19:35:09.652Z,11.20
2019-03-23T19:37:38.890Z,11.30
2019-03-23T19:40:06.659Z,11.20
2019-03-23T19:42:33.982Z,11.10
2019-03-23T19:45:01.483Z,11.10
2019-03-23T19:47:29.567Z,11.10
2019-03-23T19:49:56.965Z,11.10
2019-03-23T19:52:24.527Z,11.30
2019-03-23T19:54:52.109Z,11.20
2019-03-23T19:57:19.731Z,11.10
2019-03-23T19:59:47.164Z,11.00
2019-03-23T20:02:17.601Z,10.90
2019-03-23T20:04:45.042Z,10.90
2019-03-23T20:07:12.600Z,10.70
2019-03-23T20:09:39.975Z,10.80
2019-03-23T20:12:07.279Z,10.70
2019-03-23T20:14:34.689Z,10.70
2019-03-23T20:17:02.230Z,10.70
2019-03-23T20:19:29.621Z,10.70
2019-03-23T20:21:57.048Z,10.60
2019-03-23T20:24:24.479Z,10.60
2019-03-23T20:26:51.920Z,10.60
2019-03-23T20:29:19.222Z,10.60
2019-03-23T20:31:46.697Z,10.60
2019-03-23T20:34:14.257Z,9.40
2019-03-23T20:36:41.620Z,10.60
2019-03-23T20:39:09.293Z,10.50
2019-03-23T20:41:36.738Z,10.50
2019-03-23T20:44:09.420Z,10.50
2019-03-23T20:46:33.940Z,10.50
2019-03-23T20:49:01.676Z,10.40
2019-03-23T20:51:29.591Z,10.40
2019-03-23T20:53:57.151Z,10.40
2019-03-23T20:56:24.558Z,10.40
2019-03-23T20:58:51.958Z,10.40
2019-03-23T21:01:19.449Z,10.30
2019-03-23T21:03:46.846Z,10.30
2019-03-23T21:06:14.359Z,10.20
2019-03-23T21:08:41.770Z,10.20
2019-03-23T21:11:09.184Z,10.20
2019-03-23T21:13:36.494Z,10.20
2019-03-23T21:16:04.649Z,10.20
2019-03-23T21:18:32.038Z,10.10
2019-03-23T21:20:59.539Z,10.20
2019-03-23T21:23:26.887Z,10.10
2019-03-23T21:25:54.375Z,10.10
2019-03-23T21:28:21.797Z,10.10
2019-03-23T21:30:49.230Z,10.10
2019-03-23T21:33:16.569Z,10.00
2019-03-23T21:35:43.988Z,10.00
2019-03-23T21:38:11.531Z,10.00
2019-03-23T21:40:39.063Z,10.00
2019-03-23T21:43:06.546Z,10.00
2019-03-23T21:45:34.070Z,9.90
2019-03-23T21:48:01.567Z,9.90
2019-03-23T21:50:29.091Z,9.90
2019-03-23T21:52:56.527Z,9.90
2019-03-23T21:55:24.305Z,9.90
2019-03-23T21:57:55.295Z,9.90
2019-03-23T22:00:32.469Z,9.90
2019-03-23T22:03:00.124Z,9.90
2019-03-23T22:05:27.737Z,9.90
2019-03-23T22:07:56.424Z,9.80
2019-03-23T22:10:23.835Z,9.80
2019-03-23T22:12:51.379Z,9.80
2019-03-23T22:15:18.981Z,9.80
2019-03-23T22:17:46.383Z,9.80
2019-03-23T22:20:14.019Z,9.80
2019-03-23T22:22:41.703Z,9.80
2019-03-23T22:25:09.846Z,9.70
2019-03-23T22:27:37.555Z,9.80
2019-03-23T22:30:07.635Z,9.70
2019-03-23T22:32:35.085Z,9.70
2019-03-23T22:35:02.599Z,9.70
2019-03-23T22:37:34.411Z,9.60
2019-03-23T22:40:02.161Z,9.70
2019-03-23T22:42:29.515Z,9.60
2019-03-23T22:44:57.191Z,9.60
2019-03-23T22:47:32.266Z,9.50
2019-03-23T22:49:59.741Z,9.50
2019-03-23T22:52:27.152Z,9.60
2019-03-23T22:54:54.651Z,9.60
2019-03-23T22:57:22.203Z,9.60
2019-03-23T22:59:49.522Z,9.50
2019-03-23T23:02:16.797Z,9.50
2019-03-23T23:04:44.307Z,9.50
2019-03-23T23:07:12.124Z,9.50
2019-03-23T23:09:39.515Z,9.50
2019-03-23T23:12:07.313Z,9.40
2019-03-23T23:14:34.729Z,9.30
2019-03-23T23:17:02.232Z,9.40
2019-03-23T23:19:29.651Z,9.40
2019-03-23T23:21:57.154Z,9.30
2019-03-23T23:24:24.568Z,9.30
2019-03-23T23:26:52.007Z,9.30
2019-03-23T23:29:19.285Z,9.20
2019-03-23T23:31:46.698Z,9.20
2019-03-23T23:34:14.282Z,9.20
2019-03-23T23:36:41.565Z,9.20
2019-03-23T23:39:09.095Z,9.20
2019-03-23T23:41:36.490Z,9.20
2019-03-23T23:44:04.008Z,9.10
2019-03-23T23:46:36.786Z,9.10
2019-03-23T23:49:04.389Z,9.10
2019-03-23T23:51:31.926Z,8.20
2019-03-23T23:53:59.339Z,9.10
2019-03-23T23:56:33.373Z,9.10
2019-03-23T23:59:00.943Z,9.10
